Time,TemperatureF,DewpointF,PressureIn,WindDirection,WindDirectionDegrees,WindSpeedMPH,WindSpeedGustMPH,Humidity,HourlyPrecipIn,Conditions,Clouds,dailyrainin,SoftwareType,DateUTC
2013-07-27 00:02:00,60.0,39.0,-100.00,West,261,1.0,2.0,45,0.00,,,0.00,,2013-07-27 06:02:00,
2013-07-27 00:12:00,60.0,39.0,-100.00,West,261,1.0,2.0,45,0.00,,,0.00,,2013-07-27 06:12:00,
2013-07-27 00:22:00,60.0,39.0,-100.00,West,261,1.0,2.0,45,0.00,,,0.00,,2013-07-27 06:22:00,
2013-07-27 00:43:00,60.0,40.0,-100.00,WSW,243,1.0,2.0,48,0.00,,,0.00,,2013-07-27 06:43:00,
2013-07-27 00:52:00,60.0,40.0,-100.00,WSW,243,1.0,2.0,48,0.00,,,0.00,,2013-07-27 06:52:00,
2013-07-27 01:00:00,59.0,38.0,-100.00,ESE,114,0.0,2.0,46,0.00,,,0.00,,2013-07-27 07:00:00,
2013-07-27 01:22:00,60.0,40.0,-100.00,West,261,1.0,2.0,48,0.00,,,0.00,,2013-07-27 07:22:00,
2013-07-27 01:33:00,59.0,40.0,-100.00,WSW,257,0.0,2.0,50,0.00,,,0.00,,2013-07-27 07:33:00,
2013-07-27 01:43:00,59.0,38.0,-100.00,ESE,114,0.0,2.0,46,0.00,,,0.00,,2013-07-27 07:43:00,
2013-07-27 01:52:00,59.0,38.0,-100.00,ESE,114,0.0,2.0,46,0.00,,,0.00,,2013-07-27 07:52:00,
2013-07-27 02:32:00,60.0,38.0,-100.00,North,7,0.0,1.0,43,0.00,,,0.00,,2013-07-27 08:32:00,
2013-07-27 02:43:00,62.0,38.0,-100.00,SSE,161,1.0,2.0,42,0.00,,,0.00,,2013-07-27 08:43:00,
2013-07-27 02:53:00,63.0,37.0,-100.00,SSE,158,2.0,2.0,38,0.00,,,0.00,,2013-07-27 08:53:00,
2013-07-27 03:02:00,63.0,37.0,-100.00,SSE,158,2.0,2.0,38,0.00,,,0.00,,2013-07-27 09:02:00,
2013-07-27 03:11:00,63.0,37.0,-100.00,SSE,158,2.0,2.0,38,0.00,,,0.00,,2013-07-27 09:11:00,
2013-07-27 03:22:00,64.0,37.0,-100.00,SE,143,2.0,3.0,38,0.00,,,0.00,,2013-07-27 09:22:00,
2013-07-27 03:33:00,64.0,37.0,-100.00,SE,143,2.0,3.0,38,0.00,,,0.00,,2013-07-27 09:33:00,
2013-07-27 03:44:00,60.0,39.0,-100.00,SW,229,0.0,1.0,46,0.00,,,0.00,,2013-07-27 09:44:00,
2013-07-27 03:52:00,60.0,39.0,-100.00,SW,229,0.0,1.0,46,0.00,,,0.00,,2013-07-27 09:52:00,
2013-07-27 04:02:00,60.0,39.0,-100.00,SW,229,0.0,1.0,46,0.00,,,0.00,,2013-07-27 10:02:00,
2013-07-27 04:22:00,59.0,39.0,-100.00,West,268,1.0,2.0,48,0.00,,,0.00,,2013-07-27 10:22:00,
2013-07-27 04:32:00,59.0,39.0,-100.00,West,268,1.0,2.0,48,0.00,,,0.00,,2013-07-27 10:32:00,
2013-07-27 04:43:00,58.0,39.0,-100.00,WSW,251,1.0,2.0,50,0.00,,,0.00,,2013-07-27 10:43:00,
2013-07-27 04:52:00,58.0,39.0,-100.00,WSW,251,1.0,2.0,50,0.00,,,0.00,,2013-07-27 10:52:00,
2013-07-27 05:02:00,58.0,39.0,-100.00,WSW,251,1.0,2.0,50,0.00,,,0.00,,2013-07-27 11:02:00,
2013-07-27 05:22:00,58.0,39.0,-100.00,West,274,2.0,4.0,49,0.00,,,0.00,,2013-07-27 11:22:00,
2013-07-27 05:32:00,58.0,39.0,-100.00,West,274,2.0,4.0,49,0.00,,,0.00,,2013-07-27 11:32:00,
2013-07-27 05:43:00,58.0,39.0,-100.00,West,274,2.0,4.0,49,0.00,,,0.00,,2013-07-27 11:43:00,
2013-07-27 06:02:00,59.0,36.0,-100.00,ESE,117,2.0,3.0,43,0.00,,,0.00,,2013-07-27 12:02:00,
2013-07-27 06:12:00,59.0,36.0,-100.00,ESE,117,2.0,3.0,43,0.00,,,0.00,,2013-07-27 12:12:00,
2013-07-27 06:22:00,59.0,36.0,-100.00,ESE,117,2.0,3.0,43,0.00,,,0.00,,2013-07-27 12:22:00,
2013-07-27 06:30:00,60.0,36.0,-100.00,SE,133,2.0,3.0,40,0.00,,,0.00,,2013-07-27 12:30:00,
2013-07-27 06:33:00,59.0,36.0,-100.00,SSE,154,2.0,3.0,41,0.00,,,0.00,,2013-07-27 12:33:00,
2013-07-27 06:43:00,59.0,36.0,-100.00,SSE,154,2.0,3.0,41,0.00,,,0.00,,2013-07-27 12:43:00,
2013-07-27 06:52:00,59.0,36.0,-100.00,SSE,154,2.0,3.0,41,0.00,,,0.00,,2013-07-27 12:52:00,
2013-07-27 07:02:00,60.0,36.0,-100.00,SE,133,2.0,3.0,40,0.00,,,0.00,,2013-07-27 13:02:00,
2013-07-27 07:12:00,60.0,36.0,-100.00,SE,133,2.0,3.0,40,0.00,,,0.00,,2013-07-27 13:12:00,
2013-07-27 07:22:00,60.0,36.0,-100.00,SE,133,2.0,3.0,40,0.00,,,0.00,,2013-07-27 13:22:00,
2013-07-27 07:44:00,60.0,38.0,-100.00,ESE,117,5.0,6.0,44,0.00,,,0.00,,2013-07-27 13:44:00,
2013-07-27 07:53:00,60.0,38.0,-100.00,ESE,117,5.0,6.0,44,0.00,,,0.00,,2013-07-27 13:53:00,
2013-07-27 08:12:00,60.0,39.0,-100.00,SE,127,4.0,5.0,45,0.00,,,0.00,,2013-07-27 14:12:00,
2013-07-27 08:22:00,60.0,39.0,-100.00,SE,127,4.0,5.0,45,0.00,,,0.00,,2013-07-27 14:22:00,
2013-07-27 08:32:00,60.0,40.0,-100.00,SE,134,5.0,6.0,49,0.00,,,0.00,,2013-07-27 14:32:00,
2013-07-27 08:44:00,60.0,40.0,-100.00,SE,134,5.0,6.0,49,0.00,,,0.00,,2013-07-27 14:44:00,
2013-07-27 08:54:00,60.0,40.0,-100.00,SE,134,5.0,6.0,49,0.00,,,0.00,,2013-07-27 14:54:00,
2013-07-27 09:12:00,60.0,41.0,-100.00,SE,134,4.0,5.0,48,0.00,,,0.00,,2013-07-27 15:12:00,
2013-07-27 09:22:00,60.0,41.0,-100.00,SE,134,4.0,5.0,48,0.00,,,0.00,,2013-07-27 15:22:00,
2013-07-27 09:30:00,61.0,43.0,-100.00,SE,144,5.0,7.0,50,0.00,,,0.00,,2013-07-27 15:30:00,
2013-07-27 09:33:00,60.0,41.0,-100.00,SE,128,4.0,5.0,49,0.00,,,0.00,,2013-07-27 15:33:00,
2013-07-27 09:44:00,60.0,41.0,-100.00,SE,128,4.0,5.0,49,0.00,,,0.00,,2013-07-27 15:44:00,
2013-07-27 10:02:00,61.0,43.0,-100.00,SE,144,5.0,7.0,50,0.00,,,0.00,,2013-07-27 16:02:00,
2013-07-27 10:12:00,61.0,43.0,-100.00,SE,144,5.0,7.0,50,0.00,,,0.00,,2013-07-27 16:12:00,
2013-07-27 10:22:00,61.0,43.0,-100.00,SE,144,5.0,7.0,50,0.00,,,0.00,,2013-07-27 16:22:00,
2013-07-27 10:43:00,62.0,41.0,-100.00,SSE,161,6.0,10.0,45,0.00,,,0.00,,2013-07-27 16:43:00,
2013-07-27 10:54:00,62.0,41.0,-100.00,SSE,161,6.0,10.0,45,0.00,,,0.00,,2013-07-27 16:54:00,
2013-07-27 11:00:00,63.0,42.0,-100.00,SE,130,6.0,8.0,45,0.00,,,0.00,,2013-07-27 17:00:00,
2013-07-27 11:02:00,63.0,41.0,-100.00,SSE,148,5.0,8.0,45,0.00,,,0.00,,2013-07-27 17:02:00,
2013-07-27 11:12:00,63.0,41.0,-100.00,SSE,148,5.0,8.0,45,0.00,,,0.00,,2013-07-27 17:12:00,
2013-07-27 11:22:00,63.0,41.0,-100.00,SSE,148,5.0,8.0,45,0.00,,,0.00,,2013-07-27 17:22:00,
2013-07-27 11:32:00,63.0,42.0,-100.00,SE,130,6.0,8.0,45,0.00,,,0.00,,2013-07-27 17:32:00,
2013-07-27 11:43:00,63.0,42.0,-100.00,SE,130,6.0,8.0,45,0.00,,,0.00,,2013-07-27 17:43:00,
2013-07-27 11:53:00,63.0,42.0,-100.00,SE,130,6.0,8.0,45,0.00,,,0.00,,2013-07-27 17:53:00,
2013-07-27 12:43:00,68.0,40.0,-100.00,ESE,117,4.0,7.0,36,0.00,,,0.00,,2013-07-27 18:43:00,
2013-07-27 12:53:00,68.0,40.0,-100.00,ESE,117,4.0,7.0,36,0.00,,,0.00,,2013-07-27 18:53:00,
2013-07-27 13:02:00,68.0,40.0,-100.00,ESE,117,4.0,7.0,36,0.00,,,0.00,,2013-07-27 19:02:00,
2013-07-27 13:22:00,72.0,38.0,-100.00,SSE,148,7.0,10.0,29,0.00,,,0.00,,2013-07-27 19:22:00,
2013-07-27 13:32:00,72.0,38.0,-100.00,SSE,148,7.0,10.0,29,0.00,,,0.00,,2013-07-27 19:32:00,
2013-07-27 13:43:00,72.0,37.0,-100.00,SE,143,5.0,8.0,28,0.00,,,0.00,,2013-07-27 19:43:00,
2013-07-27 13:53:00,72.0,37.0,-100.00,SE,143,5.0,8.0,28,0.00,,,0.00,,2013-07-27 19:53:00,
2013-07-27 14:02:00,72.0,37.0,-100.00,SE,143,5.0,8.0,28,0.00,,,0.00,,2013-07-27 20:02:00,
2013-07-27 14:22:00,74.0,32.0,-100.00,WNW,301,2.0,4.0,21,0.00,,,0.00,,2013-07-27 20:22:00,
2013-07-27 14:32:00,74.0,32.0,-100.00,WNW,301,2.0,4.0,21,0.00,,,0.00,,2013-07-27 20:32:00,
2013-07-27 14:52:00,72.0,38.0,-100.00,SSE,152,5.0,8.0,29,0.00,,,0.00,,2013-07-27 20:52:00,
2013-07-27 15:02:00,72.0,38.0,-100.00,SSE,152,5.0,8.0,29,0.00,,,0.00,,2013-07-27 21:02:00,
2013-07-27 15:12:00,72.0,38.0,-100.00,SSE,152,5.0,8.0,29,0.00,,,0.00,,2013-07-27 21:12:00,
2013-07-27 15:43:00,79.0,31.0,-100.00,SW,236,4.0,6.0,18,0.00,,,0.00,,2013-07-27 21:43:00,
2013-07-27 15:53:00,79.0,31.0,-100.00,SW,236,4.0,6.0,18,0.00,,,0.00,,2013-07-27 21:53:00,
2013-07-27 16:02:00,79.0,31.0,-100.00,SW,236,4.0,6.0,18,0.00,,,0.00,,2013-07-27 22:02:00,
2013-07-27 16:32:00,79.0,29.0,-100.00,WSW,250,6.0,10.0,16,0.00,,,0.00,,2013-07-27 22:32:00,
2013-07-27 16:43:00,79.0,29.0,-100.00,WSW,250,6.0,10.0,16,0.00,,,0.00,,2013-07-27 22:43:00,
2013-07-27 16:53:00,79.0,29.0,-100.00,WSW,250,6.0,10.0,16,0.00,,,0.00,,2013-07-27 22:53:00,
2013-07-27 17:02:00,74.0,26.0,-100.00,NNW,328,6.0,11.0,16,0.00,,,0.00,,2013-07-27 23:02:00,
2013-07-27 17:12:00,74.0,26.0,-100.00,NNW,328,6.0,11.0,16,0.00,,,0.00,,2013-07-27 23:12:00,
2013-07-27 17:22:00,74.0,26.0,-100.00,NNW,328,6.0,11.0,16,0.00,,,0.00,,2013-07-27 23:22:00,
2013-07-27 17:44:00,76.0,26.0,-100.00,NW,323,9.0,13.0,15,0.00,,,0.00,,2013-07-27 23:44:00,
2013-07-27 18:02:00,75.0,29.0,-100.00,NW,313,9.0,13.0,19,0.00,,,0.00,,2013-07-28 00:02:00,
2013-07-27 18:12:00,75.0,29.0,-100.00,NW,313,9.0,13.0,19,0.00,,,0.00,,2013-07-28 00:12:00,
2013-07-27 18:22:00,75.0,29.0,-100.00,NW,313,9.0,13.0,19,0.00,,,0.00,,2013-07-28 00:22:00,
2013-07-27 18:32:00,76.0,30.0,-100.00,NNW,335,9.0,15.0,19,0.00,,,0.00,,2013-07-28 00:32:00,
2013-07-27 18:44:00,76.0,30.0,-100.00,NNW,335,9.0,15.0,19,0.00,,,0.00,,2013-07-28 00:44:00,
2013-07-27 19:02:00,75.0,29.0,-100.00,NW,306,7.0,11.0,18,0.00,,,0.00,,2013-07-28 01:02:00,
2013-07-27 19:12:00,75.0,29.0,-100.00,NW,306,7.0,11.0,18,0.00,,,0.00,,2013-07-28 01:12:00,
2013-07-27 19:22:00,75.0,29.0,-100.00,NW,306,7.0,11.0,18,0.00,,,0.00,,2013-07-28 01:22:00,
2013-07-27 19:32:00,74.0,27.0,-100.00,NW,312,10.0,13.0,18,0.00,,,0.00,,2013-07-28 01:32:00,
2013-07-27 19:43:00,73.0,27.0,-100.00,NW,308,10.0,14.0,18,0.00,,,0.00,,2013-07-28 01:43:00,
2013-07-27 19:53:00,73.0,27.0,-100.00,NW,308,10.0,14.0,18,0.00,,,0.00,,2013-07-28 01:53:00,
2013-07-27 20:02:00,71.0,24.0,-100.00,NW,315,9.0,15.0,17,0.00,,,0.00,,2013-07-28 02:02:00,
2013-07-27 20:12:00,71.0,24.0,-100.00,NW,315,9.0,15.0,17,0.00,,,0.00,,2013-07-28 02:12:00,
2013-07-27 20:22:00,71.0,24.0,-100.00,NW,315,9.0,15.0,17,0.00,,,0.00,,2013-07-28 02:22:00,
2013-07-27 20:42:00,69.0,25.0,-100.00,NW,305,6.0,10.0,19,0.00,,,0.00,,2013-07-28 02:42:00,
2013-07-27 20:53:00,69.0,25.0,-100.00,NW,305,6.0,10.0,19,0.00,,,0.00,,2013-07-28 02:53:00,
2013-07-27 21:02:00,67.0,24.0,-100.00,WNW,301,4.0,5.0,19,0.00,,,0.00,,2013-07-28 03:02:00,
2013-07-27 21:12:00,67.0,24.0,-100.00,WNW,301,4.0,5.0,19,0.00,,,0.00,,2013-07-28 03:12:00,
2013-07-27 21:22:00,67.0,24.0,-100.00,WNW,301,4.0,5.0,19,0.00,,,0.00,,2013-07-28 03:22:00,
2013-07-27 21:32:00,64.0,22.0,-100.00,NW,304,3.0,6.0,20,0.00,,,0.00,,2013-07-28 03:32:00,
2013-07-27 21:42:00,64.0,22.0,-100.00,NW,304,3.0,6.0,20,0.00,,,0.00,,2013-07-28 03:42:00,
2013-07-27 21:53:00,64.0,22.0,-100.00,NW,304,3.0,6.0,20,0.00,,,0.00,,2013-07-28 03:53:00,
2013-07-27 22:12:00,62.0,26.0,-100.00,NW,319,2.0,3.0,25,0.00,,,0.00,,2013-07-28 04:12:00,
2013-07-27 22:22:00,62.0,26.0,-100.00,NW,319,2.0,3.0,25,0.00,,,0.00,,2013-07-28 04:22:00,
2013-07-27 22:43:00,60.0,25.0,-100.00,NNW,332,2.0,3.0,27,0.00,,,0.00,,2013-07-28 04:43:00,
2013-07-27 22:53:00,59.0,26.0,-100.00,NNW,333,2.0,3.0,28,0.00,,,0.00,,2013-07-28 04:53:00,
2013-07-27 23:02:00,59.0,26.0,-100.00,NNW,333,2.0,3.0,28,0.00,,,0.00,,2013-07-28 05:02:00,
2013-07-27 23:12:00,58.0,27.0,-100.00,NNW,336,2.0,3.0,30,0.00,,,0.00,,2013-07-28 05:12:00,
2013-07-27 23:43:00,59.0,27.0,-100.00,NW,312,3.0,5.0,29,0.00,,,0.00,,2013-07-28 05:43:00,
2013-07-27 23:53:00,59.0,27.0,-100.00,NW,312,3.0,5.0,29,0.00,,,0.00,,2013-07-28 05:53:00,